Terminal Aerodrome Forecast
Issued by NWS

Home | Current Version | Previous Version | Graphics & Text | Print | Product List | Glossary On
Versions: 1 2 3 4 5 6 7 8 9 10 11 12 13 14 15 16 17 18 19 20 21 22
179
FTUS41 KCLE 011459 AAB
TAFFDY
TAF AMD
KFDY 011459Z 0115/0212 08004KT 6SM HZ OVC005
      TEMPO 0115/0118 5SM HZ OVC008
     FM011800 33005KT 6SM HZ OVC008
      TEMPO 0120/0124 6SM SCT006 OVC012
     FM020200 04006KT 2SM -RA BR OVC004=

USA.gov is the U.S. government's official web portal to all federal, state and local government web resources and services.